Time;durP1;ratioP1;P1;durP2;ratioP2;P2;SDS_P1;SDS_P2;PMS_P1;PMS_P2;Temp;Humidity;BMP_temperature;BMP_pressure;BME280_temperature;BME280_humidity;BME280_pressure;Samples;Min_cycle;Max_cycle;Signal;HPM_P1;HPM_P2
2023/10/30 00:02:10;;;;;;;4.37;3.40;;;;;;;;;;5027541;28;20230;-77
2023/10/30 00:04:37;;;;;;;4.30;3.93;;;;;;;;;;5009871;28;20609;-76
2023/10/30 00:07:05;;;;;;;4.17;3.30;;;;;;;;;;5022741;28;20486;-76
2023/10/30 00:09:32;;;;;;;3.50;3.20;;;;;;;;;;5025125;28;20230;-77
2023/10/30 00:12:00;;;;;;;3.60;3.30;;;;;;;;;;5009880;28;20277;-76
2023/10/30 00:14:28;;;;;;;4.10;3.10;;;;;;;;;;5020925;28;20239;-75
2023/10/30 00:16:55;;;;;;;4.47;3.60;;;;;;;;;;5024469;28;20230;-75
2023/10/30 00:19:22;;;;;;;6.27;4.30;;;;;;;;;;5020013;28;20220;-75
2023/10/30 00:21:50;;;;;;;3.40;3.10;;;;;;;;;;5020651;28;20224;-77
2023/10/30 00:24:17;;;;;;;3.43;2.63;;;;;;;;;;5025259;28;20206;-75
2023/10/30 00:26:44;;;;;;;2.73;2.50;;;;;;;;;;5026909;28;20290;-78
2023/10/30 00:29:12;;;;;;;3.07;2.63;;;;;;;;;;5008768;28;20212;-77
2023/10/30 00:31:40;;;;;;;2.77;2.30;;;;;;;;;;5019058;28;20223;-74
2023/10/30 00:34:11;;;;;;;3.53;2.90;;;;;;;;;;5022241;28;20270;-76
2023/10/30 00:36:39;;;;;;;2.60;2.40;;;;;;;;;;5029193;28;20206;-75
2023/10/30 00:39:06;;;;;;;4.30;3.30;;;;;;;;;;5018747;28;20293;-74
2023/10/30 00:41:33;;;;;;;3.93;3.33;;;;;;;;;;5017641;28;20236;-76
2023/10/30 00:44:01;;;;;;;3.60;3.30;;;;;;;;;;5021181;28;20234;-77
2023/10/30 00:46:28;;;;;;;5.03;3.97;;;;;;;;;;5021011;28;20195;-75
2023/10/30 00:48:55;;;;;;;4.20;3.80;;;;;;;;;;5021060;28;20278;-77
2023/10/30 00:51:22;;;;;;;4.37;3.97;;;;;;;;;;5024730;28;20695;-76
2023/10/30 00:53:50;;;;;;;4.30;4.00;;;;;;;;;;5026735;28;20238;-75
2023/10/30 00:56:17;;;;;;;6.03;5.43;;;;;;;;;;5025756;28;20211;-76
2023/10/30 00:58:44;;;;;;;5.93;5.40;;;;;;;;;;5032262;28;20626;-76
2023/10/30 01:01:13;;;;;;;4.10;3.80;;;;;;;;;;5021018;28;20647;-75
2023/10/30 01:03:40;;;;;;;4.93;4.40;;;;;;;;;;5026119;28;20658;-75
2023/10/30 01:06:08;;;;;;;5.43;4.80;;;;;;;;;;5024209;28;20701;-75
2023/10/30 01:08:35;;;;;;;5.50;5.00;;;;;;;;;;5019533;28;20202;-76
2023/10/30 01:11:03;;;;;;;5.73;5.20;;;;;;;;;;5027690;28;20270;-75
2023/10/30 01:13:32;;;;;;;4.77;4.27;;;;;;;;;;5025985;28;20209;-74
2023/10/30 01:16:00;;;;;;;5.17;4.67;;;;;;;;;;5030200;28;20720;-75
2023/10/30 01:18:27;;;;;;;5.83;5.23;;;;;;;;;;5030045;28;20202;-75
2023/10/30 01:20:55;;;;;;;6.17;5.57;;;;;;;;;;5028139;28;20767;-76
2023/10/30 01:23:22;;;;;;;7.00;6.30;;;;;;;;;;5025459;28;20203;-75
2023/10/30 01:25:49;;;;;;;6.33;5.73;;;;;;;;;;5024550;28;20213;-76
2023/10/30 01:28:17;;;;;;;6.80;6.13;;;;;;;;;;5029607;28;20290;-76
2023/10/30 01:30:44;;;;;;;8.17;7.47;;;;;;;;;;5021994;28;20250;-76
2023/10/30 01:33:11;;;;;;;9.50;7.73;;;;;;;;;;5021754;28;20934;-76
2023/10/30 01:35:39;;;;;;;10.70;9.70;;;;;;;;;;5017263;28;20868;-74
2023/10/30 01:38:06;;;;;;;11.77;10.27;;;;;;;;;;5005443;28;20655;-75
2023/10/30 01:40:35;;;;;;;13.83;11.47;;;;;;;;;;5008107;28;20319;-74
2023/10/30 01:43:09;;;;;;;16.60;14.37;;;;;;;;;;5018563;28;20211;-74
2023/10/30 01:45:36;;;;;;;16.80;14.87;;;;;;;;;;5026680;28;20202;-74
2023/10/30 01:48:04;;;;;;;16.50;14.80;;;;;;;;;;5025236;28;20709;-75
2023/10/30 01:50:31;;;;;;;17.73;15.07;;;;;;;;;;5020729;28;20541;-76
2023/10/30 01:52:59;;;;;;;18.53;15.50;;;;;;;;;;5005336;28;20401;-76
2023/10/30 01:55:26;;;;;;;18.77;15.73;;;;;;;;;;5018448;28;20288;-75
2023/10/30 01:57:53;;;;;;;13.87;12.47;;;;;;;;;;5019232;28;20605;-74
2023/10/30 02:00:21;;;;;;;19.57;13.07;;;;;;;;;;5014699;28;20309;-76
2023/10/30 02:02:48;;;;;;;15.83;11.10;;;;;;;;;;5021525;28;20574;-74
2023/10/30 02:05:16;;;;;;;11.03;10.03;;;;;;;;;;5025304;28;20207;-76
2023/10/30 02:07:43;;;;;;;17.87;13.37;;;;;;;;;;5027767;28;20215;-74
2023/10/30 02:10:11;;;;;;;32.03;9.73;;;;;;;;;;5017246;28;20253;-74
2023/10/30 02:12:41;;;;;;;120.43;10.40;;;;;;;;;;5018168;28;20362;-74
2023/10/30 02:15:09;;;;;;;22.87;8.20;;;;;;;;;;5022831;28;20210;-74
2023/10/30 02:17:36;;;;;;;11.23;7.83;;;;;;;;;;5020559;28;20974;-76
2023/10/30 02:20:04;;;;;;;19.43;9.60;;;;;;;;;;5017794;28;20308;-75
2023/10/30 02:22:31;;;;;;;46.57;10.73;;;;;;;;;;5021398;28;20215;-76
2023/10/30 02:24:59;;;;;;;46.50;12.20;;;;;;;;;;5023080;28;20606;-78
2023/10/30 02:27:26;;;;;;;14.33;9.33;;;;;;;;;;5054742;28;20206;-76
2023/10/30 02:29:53;;;;;;;20.13;10.80;;;;;;;;;;5035679;28;20660;-77
2023/10/30 02:32:21;;;;;;;84.77;19.23;;;;;;;;;;5033811;28;20234;-76
2023/10/30 02:34:49;;;;;;;215.83;38.17;;;;;;;;;;5029004;28;20721;-75
2023/10/30 02:37:16;;;;;;;65.77;21.87;;;;;;;;;;5035681;28;20616;-76
2023/10/30 02:39:43;;;;;;;39.03;11.90;;;;;;;;;;5033669;28;20639;-78
2023/10/30 02:42:12;;;;;;;25.00;10.90;;;;;;;;;;5029907;28;20245;-76
2023/10/30 02:44:40;;;;;;;38.63;13.27;;;;;;;;;;5046390;28;20206;-77
2023/10/30 02:47:07;;;;;;;12.00;10.70;;;;;;;;;;5057003;28;20198;-78
2023/10/30 02:49:35;;;;;;;29.17;13.57;;;;;;;;;;5022953;28;20191;-76
2023/10/30 02:52:03;;;;;;;20.30;13.53;;;;;;;;;;5036411;28;20227;-76
2023/10/30 02:54:30;;;;;;;16.57;12.50;;;;;;;;;;5019380;28;20203;-74
2023/10/30 02:56:58;;;;;;;17.63;12.37;;;;;;;;;;5036722;28;20289;-75
2023/10/30 02:59:25;;;;;;;12.07;10.77;;;;;;;;;;5018880;28;20199;-76
2023/10/30 03:01:52;;;;;;;12.90;10.40;;;;;;;;;;5044603;28;20223;-77
2023/10/30 03:04:19;;;;;;;15.83;11.40;;;;;;;;;;5039763;28;20211;-76
2023/10/30 03:06:47;;;;;;;22.47;9.47;;;;;;;;;;5035293;28;20220;-75
2023/10/30 03:09:15;;;;;;;12.10;9.57;;;;;;;;;;5033423;28;20202;-76
2023/10/30 03:11:43;;;;;;;11.27;9.87;;;;;;;;;;5035829;28;20226;-77
2023/10/30 03:14:11;;;;;;;10.23;9.07;;;;;;;;;;5035388;28;20202;-77
2023/10/30 03:16:38;;;;;;;12.23;9.43;;;;;;;;;;5034878;28;20207;-76
2023/10/30 03:19:05;;;;;;;10.13;9.13;;;;;;;;;;5037346;28;20210;-76
2023/10/30 03:21:33;;;;;;;8.80;7.90;;;;;;;;;;5020941;28;20626;-76
2023/10/30 03:24:00;;;;;;;11.10;9.33;;;;;;;;;;5035623;28;20214;-78
2023/10/30 03:26:27;;;;;;;11.00;9.80;;;;;;;;;;5044019;28;20214;-75
2023/10/30 03:28:54;;;;;;;10.57;9.23;;;;;;;;;;5012659;28;20504;-75
2023/10/30 03:31:22;;;;;;;10.33;9.33;;;;;;;;;;5037037;28;20242;-77
2023/10/30 03:33:50;;;;;;;10.43;9.10;;;;;;;;;;5055831;28;20210;-77
2023/10/30 03:36:22;;;;;;;10.73;9.63;;;;;;;;;;5056843;28;20210;-77
2023/10/30 03:38:52;;;;;;;12.27;10.07;;;;;;;;;;5057576;28;20293;-78
2023/10/30 03:41:20;;;;;;;10.43;9.40;;;;;;;;;;5047105;28;20238;-76
2023/10/30 03:43:47;;;;;;;8.67;7.77;;;;;;;;;;5035632;28;20210;-79
2023/10/30 03:46:15;;;;;;;19.87;7.63;;;;;;;;;;5051997;28;20213;-76
2023/10/30 03:48:42;;;;;;;12.80;7.67;;;;;;;;;;5056411;28;20210;-76
2023/10/30 03:51:09;;;;;;;8.10;7.40;;;;;;;;;;5040005;28;20266;-76
2023/10/30 03:53:37;;;;;;;17.80;8.23;;;;;;;;;;5035665;28;20210;-76
2023/10/30 03:56:06;;;;;;;10.70;7.57;;;;;;;;;;5036056;28;20207;-77
2023/10/30 03:58:33;;;;;;;8.57;7.80;;;;;;;;;;5035209;28;20567;-77
2023/10/30 04:01:07;;;;;;;7.67;6.97;;;;;;;;;;5035660;28;20227;-77
2023/10/30 04:03:35;;;;;;;8.20;7.50;;;;;;;;;;5035554;28;20619;-76
2023/10/30 04:06:03;;;;;;;8.30;7.50;;;;;;;;;;5037057;28;20222;-77
2023/10/30 04:08:31;;;;;;;8.27;7.57;;;;;;;;;;5035282;28;20207;-77
2023/10/30 04:10:58;;;;;;;8.67;7.87;;;;;;;;;;5035028;28;20430;-77
2023/10/30 04:13:26;;;;;;;9.60;8.30;;;;;;;;;;5034896;28;20594;-77
2023/10/30 04:15:53;;;;;;;10.80;9.10;;;;;;;;;;5033861;28;20577;-77
2023/10/30 04:18:20;;;;;;;19.97;9.70;;;;;;;;;;5032626;28;20647;-75
2023/10/30 04:20:48;;;;;;;21.90;13.20;;;;;;;;;;5036678;28;20257;-76
2023/10/30 04:23:15;;;;;;;28.10;13.70;;;;;;;;;;5036003;28;20209;-76
2023/10/30 04:25:43;;;;;;;28.17;20.83;;;;;;;;;;5017616;28;20845;-75
2023/10/30 04:28:10;;;;;;;20.63;17.30;;;;;;;;;;5034883;28;20207;-76
2023/10/30 04:30:37;;;;;;;22.20;17.57;;;;;;;;;;5035873;28;20289;-75
2023/10/30 04:33:05;;;;;;;52.97;19.40;;;;;;;;;;5018662;28;20214;-76
2023/10/30 04:35:33;;;;;;;18.87;16.80;;;;;;;;;;5044697;28;20210;-77
2023/10/30 04:38:00;;;;;;;16.23;14.27;;;;;;;;;;5042970;28;20221;-77
2023/10/30 04:40:27;;;;;;;18.53;14.70;;;;;;;;;;5034862;28;20223;-76
2023/10/30 04:42:55;;;;;;;16.83;15.00;;;;;;;;;;5041429;28;20214;-76
2023/10/30 04:45:22;;;;;;;16.00;14.40;;;;;;;;;;5033080;28;20560;-77
2023/10/30 04:47:49;;;;;;;17.97;16.07;;;;;;;;;;5031600;28;20211;-74
2023/10/30 04:50:17;;;;;;;15.70;14.10;;;;;;;;;;5007625;28;20297;-77
2023/10/30 04:52:44;;;;;;;16.73;14.67;;;;;;;;;;5022125;28;20211;-77
2023/10/30 04:55:12;;;;;;;16.67;14.57;;;;;;;;;;5023268;28;20218;-77
2023/10/30 04:57:39;;;;;;;19.40;15.97;;;;;;;;;;5023695;28;20207;-77
2023/10/30 05:00:07;;;;;;;24.07;18.63;;;;;;;;;;4998451;28;20226;-77
2023/10/30 05:02:34;;;;;;;21.07;17.40;;;;;;;;;;5012734;28;20258;-78
2023/10/30 05:05:02;;;;;;;23.67;17.90;;;;;;;;;;5020875;28;20573;-77
2023/10/30 05:07:29;;;;;;;22.10;17.93;;;;;;;;;;5025235;28;20639;-75
2023/10/30 05:09:56;;;;;;;21.70;18.60;;;;;;;;;;5028171;28;20208;-75
2023/10/30 05:12:24;;;;;;;20.77;17.93;;;;;;;;;;5023282;28;20228;-75
2023/10/30 05:14:51;;;;;;;21.83;18.40;;;;;;;;;;5027483;28;20228;-75
2023/10/30 05:17:18;;;;;;;17.67;15.80;;;;;;;;;;5009519;28;20286;-75
2023/10/30 05:19:46;;;;;;;14.43;12.93;;;;;;;;;;5006405;28;20212;-75
2023/10/30 05:22:13;;;;;;;12.67;11.43;;;;;;;;;;5007081;28;20234;-75
2023/10/30 05:24:41;;;;;;;13.77;12.37;;;;;;;;;;5025704;28;20573;-75
2023/10/30 05:27:08;;;;;;;15.57;12.80;;;;;;;;;;5022946;28;20211;-74
2023/10/30 05:29:39;;;;;;;15.17;12.93;;;;;;;;;;5022903;28;20201;-75
2023/10/30 05:32:07;;;;;;;22.83;18.13;;;;;;;;;;5022408;28;20235;-74
2023/10/30 05:34:39;;;;;;;18.37;16.37;;;;;;;;;;5023462;28;20198;-75
2023/10/30 05:37:09;;;;;;;22.67;19.27;;;;;;;;;;5030947;28;20218;-75
2023/10/30 05:39:42;;;;;;;22.70;18.27;;;;;;;;;;5035052;28;20226;-75
2023/10/30 05:42:25;;;;;;;23.17;18.93;;;;;;;;;;5026454;28;20222;-76
2023/10/30 05:45:09;;;;;;;28.73;20.40;;;;;;;;;;5026887;28;20241;-74
2023/10/30 05:47:46;;;;;;;25.93;20.33;;;;;;;;;;5019695;28;20281;-75
2023/10/30 05:50:15;;;;;;;28.13;21.13;;;;;;;;;;5024593;28;20233;-76
2023/10/30 05:52:47;;;;;;;26.43;21.67;;;;;;;;;;5021897;28;20209;-76
2023/10/30 05:55:19;;;;;;;29.80;22.13;;;;;;;;;;5014366;28;20732;-76
2023/10/30 06:01:13;;;;;;;27.37;21.23;;;;;;;;;;4996170;28;20802;-75
2023/10/30 06:03:44;;;;;;;33.67;24.33;;;;;;;;;;5018738;28;20217;-75
2023/10/30 06:06:12;;;;;;;32.37;23.63;;;;;;;;;;5020553;28;20618;-76
2023/10/30 06:08:42;;;;;;;31.17;23.30;;;;;;;;;;5017956;28;20226;-75
2023/10/30 06:11:20;;;;;;;32.73;24.97;;;;;;;;;;5020872;28;20215;-76
2023/10/30 06:13:56;;;;;;;36.20;25.87;;;;;;;;;;5029149;28;20303;-76
2023/10/30 06:16:27;;;;;;;34.50;25.33;;;;;;;;;;5025047;28;20202;-76
2023/10/30 06:18:58;;;;;;;36.23;27.30;;;;;;;;;;5017403;28;20202;-75
2023/10/30 06:21:28;;;;;;;38.03;28.00;;;;;;;;;;5014337;28;20223;-76
2023/10/30 06:23:56;;;;;;;33.63;26.23;;;;;;;;;;5017874;28;20722;-77
2023/10/30 06:26:23;;;;;;;33.43;26.30;;;;;;;;;;5022988;28;20203;-76
2023/10/30 06:28:52;;;;;;;32.03;25.53;;;;;;;;;;5018115;28;20207;-75
2023/10/30 06:31:21;;;;;;;28.53;23.97;;;;;;;;;;5027006;28;20272;-76
2023/10/30 06:33:51;;;;;;;25.97;21.63;;;;;;;;;;5024942;28;20294;-74
2023/10/30 06:36:19;;;;;;;26.23;21.97;;;;;;;;;;5012959;28;20582;-74
2023/10/30 06:38:51;;;;;;;26.47;21.73;;;;;;;;;;5015020;28;20207;-74
2023/10/30 06:41:24;;;;;;;23.43;20.27;;;;;;;;;;5015607;28;20321;-74
2023/10/30 06:43:54;;;;;;;28.70;20.07;;;;;;;;;;5030357;28;20214;-76
2023/10/30 06:46:33;;;;;;;21.93;18.20;;;;;;;;;;5005723;28;20687;-76
2023/10/30 06:49:00;;;;;;;20.10;16.67;;;;;;;;;;5013502;28;20195;-76
2023/10/30 06:51:28;;;;;;;16.37;14.57;;;;;;;;;;5021844;28;20219;-76
2023/10/30 06:53:55;;;;;;;18.20;16.03;;;;;;;;;;5019229;28;20210;-77
2023/10/30 06:56:23;;;;;;;18.13;13.87;;;;;;;;;;5010882;28;20771;-74
2023/10/30 06:58:50;;;;;;;13.93;12.27;;;;;;;;;;5020761;28;20226;-76
2023/10/30 07:01:17;;;;;;;13.77;12.10;;;;;;;;;;5023870;28;20229;-76
2023/10/30 07:03:46;;;;;;;15.50;12.17;;;;;;;;;;5003989;28;20212;-74
2023/10/30 07:06:14;;;;;;;12.83;10.43;;;;;;;;;;5017435;28;20293;-75
2023/10/30 07:08:41;;;;;;;12.63;9.83;;;;;;;;;;5018979;28;20215;-75
2023/10/30 07:11:10;;;;;;;10.67;9.57;;;;;;;;;;5013519;28;20281;-77
2023/10/30 07:13:37;;;;;;;9.57;8.53;;;;;;;;;;5016061;28;20214;-74
2023/10/30 07:16:07;;;;;;;9.03;7.73;;;;;;;;;;5010698;28;20250;-76
2023/10/30 07:18:35;;;;;;;9.17;8.27;;;;;;;;;;5013152;28;20257;-76
2023/10/30 07:21:02;;;;;;;10.20;7.97;;;;;;;;;;5015968;28;20321;-77
2023/10/30 07:23:29;;;;;;;9.23;8.17;;;;;;;;;;5010566;28;20199;-76
2023/10/30 07:25:57;;;;;;;9.07;8.07;;;;;;;;;;5004858;28;20195;-76
2023/10/30 07:28:24;;;;;;;8.60;7.80;;;;;;;;;;5016130;28;20199;-76
2023/10/30 07:30:52;;;;;;;7.53;6.67;;;;;;;;;;5015308;28;20691;-77
2023/10/30 07:33:19;;;;;;;7.53;6.87;;;;;;;;;;5017931;28;20234;-75
2023/10/30 07:35:52;;;;;;;8.00;7.17;;;;;;;;;;5021733;28;20249;-75
2023/10/30 07:38:20;;;;;;;9.60;7.40;;;;;;;;;;5013671;28;20203;-76
2023/10/30 07:40:47;;;;;;;8.43;7.17;;;;;;;;;;5016817;28;20687;-76
2023/10/30 07:43:15;;;;;;;9.63;7.07;;;;;;;;;;5017988;28;20207;-76
2023/10/30 07:45:42;;;;;;;7.17;6.57;;;;;;;;;;5011635;28;20215;-76
2023/10/30 07:48:10;;;;;;;6.33;5.70;;;;;;;;;;5006804;28;20203;-74
2023/10/30 07:50:38;;;;;;;6.83;5.00;;;;;;;;;;5019856;28;20205;-75
2023/10/30 07:53:06;;;;;;;5.63;5.13;;;;;;;;;;5007988;28;20596;-75
2023/10/30 07:55:34;;;;;;;5.50;5.00;;;;;;;;;;5026681;28;20681;-74
2023/10/30 07:58:01;;;;;;;5.47;4.90;;;;;;;;;;5024400;28;20615;-77
2023/10/30 08:00:29;;;;;;;5.70;4.53;;;;;;;;;;5022022;28;20682;-74
2023/10/30 08:03:07;;;;;;;4.50;4.10;;;;;;;;;;5024594;28;20219;-75
2023/10/30 08:05:34;;;;;;;4.10;3.73;;;;;;;;;;5017712;28;20204;-76
2023/10/30 08:08:02;;;;;;;4.03;3.60;;;;;;;;;;5000247;28;20227;-74
2023/10/30 08:10:30;;;;;;;4.00;3.60;;;;;;;;;;5016410;28;20600;-75
2023/10/30 08:12:57;;;;;;;4.07;3.67;;;;;;;;;;5015047;28;20342;-76
2023/10/30 08:15:25;;;;;;;3.90;3.40;;;;;;;;;;5004374;28;20570;-76
2023/10/30 08:17:53;;;;;;;4.77;3.80;;;;;;;;;;5003744;28;20219;-75
2023/10/30 08:20:22;;;;;;;4.20;3.70;;;;;;;;;;5002332;28;20261;-75
2023/10/30 08:22:52;;;;;;;3.60;3.30;;;;;;;;;;5012440;28;20285;-75
2023/10/30 08:25:23;;;;;;;3.67;3.20;;;;;;;;;;5002217;28;20230;-75
2023/10/30 08:27:51;;;;;;;3.83;3.50;;;;;;;;;;5014957;28;20495;-76
2023/10/30 08:30:18;;;;;;;4.13;3.30;;;;;;;;;;5011268;28;20211;-76
2023/10/30 08:32:46;;;;;;;3.50;3.20;;;;;;;;;;5025872;28;20254;-79
2023/10/30 08:35:14;;;;;;;4.53;3.50;;;;;;;;;;5014019;28;20290;-77
2023/10/30 08:37:41;;;;;;;3.30;3.00;;;;;;;;;;5023488;28;20207;-75
2023/10/30 08:40:09;;;;;;;3.20;2.90;;;;;;;;;;5011229;28;20297;-74
2023/10/30 08:42:37;;;;;;;3.13;2.93;;;;;;;;;;5017900;28;20250;-80
2023/10/30 08:45:05;;;;;;;3.23;2.77;;;;;;;;;;5012833;28;20206;-77
2023/10/30 08:47:32;;;;;;;3.50;2.97;;;;;;;;;;5012411;28;20671;-74
2023/10/30 08:50:04;;;;;;;2.97;2.77;;;;;;;;;;5014104;28;20237;-76
2023/10/30 08:52:38;;;;;;;2.90;2.70;;;;;;;;;;5025074;28;20231;-74
2023/10/30 08:55:10;;;;;;;3.53;2.88;;;;;;;;;;5024261;28;20235;-76
2023/10/30 08:57:38;;;;;;;3.17;2.87;;;;;;;;;;5028301;28;20257;-75
2023/10/30 09:00:31;;;;;;;3.80;2.83;;;;;;;;;;5022000;28;20740;-75
2023/10/30 09:02:58;;;;;;;2.87;2.60;;;;;;;;;;5039079;23;20230;-76
2023/10/30 09:05:26;;;;;;;2.90;2.70;;;;;;;;;;5041186;28;20221;-78
2023/10/30 09:07:53;;;;;;;3.30;3.00;;;;;;;;;;5039734;28;20804;-77
2023/10/30 09:10:26;;;;;;;3.38;3.08;;;;;;;;;;5042684;28;20249;-75
2023/10/30 09:12:53;;;;;;;3.00;2.80;;;;;;;;;;5044936;28;20240;-77
2023/10/30 09:15:29;;;;;;;2.90;2.70;;;;;;;;;;5051164;28;20284;-77
2023/10/30 09:17:56;;;;;;;2.67;2.47;;;;;;;;;;5046090;28;20206;-76
2023/10/30 09:20:23;;;;;;;3.83;2.35;;;;;;;;;;5044920;28;20257;-77
2023/10/30 09:22:51;;;;;;;2.77;2.47;;;;;;;;;;5049038;28;20218;-76
2023/10/30 09:25:18;;;;;;;3.28;3.00;;;;;;;;;;5030243;28;20215;-76
2023/10/30 09:27:48;;;;;;;2.90;2.70;;;;;;;;;;5046474;28;20293;-76
2023/10/30 09:30:15;;;;;;;3.35;2.88;;;;;;;;;;5033059;28;20226;-78
2023/10/30 09:32:43;;;;;;;3.80;2.20;;;;;;;;;;5027383;28;20248;-77
2023/10/30 09:35:10;;;;;;;3.20;2.47;;;;;;;;;;5043002;28;22073;-77
2023/10/30 09:37:39;;;;;;;2.72;2.50;;;;;;;;;;5034198;28;20232;-76
2023/10/30 09:40:08;;;;;;;2.47;2.28;;;;;;;;;;5048032;28;20311;-78
2023/10/30 09:42:36;;;;;;;2.78;2.50;;;;;;;;;;5042010;28;20279;-78
2023/10/30 09:45:06;;;;;;;2.40;2.10;;;;;;;;;;5047288;28;20604;-73
2023/10/30 09:47:36;;;;;;;3.85;2.35;;;;;;;;;;5041716;28;20202;-78
2023/10/30 09:50:05;;;;;;;2.40;2.20;;;;;;;;;;5042862;28;20253;-77
2023/10/30 09:52:40;;;;;;;2.35;2.08;;;;;;;;;;5043226;28;20214;-76
2023/10/30 09:55:11;;;;;;;2.75;1.83;;;;;;;;;;5040144;28;20210;-77
2023/10/30 09:57:40;;;;;;;2.03;1.92;;;;;;;;;;5031409;28;20198;-76
2023/10/30 10:00:09;;;;;;;2.20;1.92;;;;;;;;;;5052763;28;20221;-78
2023/10/30 10:02:39;;;;;;;2.55;2.15;;;;;;;;;;5051210;28;20257;-76
2023/10/30 10:05:07;;;;;;;2.40;2.20;;;;;;;;;;5038969;28;20202;-78
2023/10/30 10:07:34;;;;;;;2.20;2.00;;;;;;;;;;5040327;28;20202;-75
2023/10/30 10:10:03;;;;;;;2.17;1.98;;;;;;;;;;5039446;28;20780;-77
2023/10/30 10:12:31;;;;;;;2.10;1.95;;;;;;;;;;5044807;28;20256;-75
2023/10/30 10:15:06;;;;;;;2.58;2.05;;;;;;;;;;5039402;28;20207;-78
2023/10/30 10:17:49;;;;;;;2.30;2.10;;;;;;;;;;5026509;28;20295;-77
2023/10/30 10:20:21;;;;;;;2.20;2.00;;;;;;;;;;5052874;28;20226;-76
2023/10/30 10:22:53;;;;;;;1.98;1.80;;;;;;;;;;5053978;28;20226;-76
2023/10/30 10:25:21;;;;;;;1.90;1.63;;;;;;;;;;5033734;28;20229;-76
2023/10/30 10:27:49;;;;;;;5.28;1.92;;;;;;;;;;5039694;28;20580;-77
2023/10/30 10:30:23;;;;;;;2.50;1.73;;;;;;;;;;5035289;28;20214;-76
2023/10/30 10:32:54;;;;;;;2.28;1.60;;;;;;;;;;5044644;28;20202;-76
2023/10/30 10:35:31;;;;;;;1.83;1.73;;;;;;;;;;5031187;28;20206;-77
2023/10/30 10:38:16;;;;;;;1.67;1.58;;;;;;;;;;5023864;28;20198;-78
2023/10/30 10:40:48;;;;;;;2.42;1.75;;;;;;;;;;5036598;28;20234;-77
2023/10/30 10:43:28;;;;;;;3.15;2.10;;;;;;;;;;5033074;28;20550;-77
2023/10/30 10:45:59;;;;;;;2.03;1.88;;;;;;;;;;5048014;28;20293;-76
2023/10/30 10:48:29;;;;;;;2.00;1.90;;;;;;;;;;5032469;28;20663;-77
2023/10/30 10:51:00;;;;;;;3.00;2.17;;;;;;;;;;5046444;28;20249;-77
2023/10/30 10:53:28;;;;;;;2.00;1.80;;;;;;;;;;5035525;28;20271;-75
2023/10/30 10:55:56;;;;;;;2.50;2.10;;;;;;;;;;5040106;28;20497;-77
2023/10/30 10:58:44;;;;;;;2.25;2.08;;;;;;;;;;5045884;28;20727;-76
2023/10/30 11:01:17;;;;;;;2.65;1.92;;;;;;;;;;5019540;28;20488;-77
2023/10/30 11:03:45;;;;;;;2.05;1.90;;;;;;;;;;5038456;28;20226;-77
2023/10/30 11:06:14;;;;;;;2.60;2.17;;;;;;;;;;5041815;28;20202;-77
2023/10/30 11:08:41;;;;;;;3.33;2.00;;;;;;;;;;5041599;28;20210;-79
2023/10/30 11:11:12;;;;;;;3.20;2.20;;;;;;;;;;5047743;28;20226;-77
2023/10/30 11:13:48;;;;;;;1.90;1.80;;;;;;;;;;5044953;28;20214;-75
2023/10/30 11:16:21;;;;;;;1.70;1.60;;;;;;;;;;5042206;28;20210;-77
2023/10/30 11:18:52;;;;;;;2.10;1.88;;;;;;;;;;5041862;28;20214;-77
2023/10/30 11:21:24;;;;;;;2.30;1.90;;;;;;;;;;5038053;28;20245;-77
2023/10/30 11:23:54;;;;;;;2.15;1.95;;;;;;;;;;5032719;28;20230;-76
2023/10/30 11:26:40;;;;;;;2.33;1.98;;;;;;;;;;5034323;28;20967;-74
2023/10/30 11:29:09;;;;;;;1.98;1.88;;;;;;;;;;5032926;28;20652;-77
2023/10/30 11:31:51;;;;;;;2.53;2.13;;;;;;;;;;5030565;28;20296;-76
2023/10/30 11:34:18;;;;;;;4.57;2.00;;;;;;;;;;5030251;28;20205;-75
2023/10/30 11:36:48;;;;;;;2.08;1.92;;;;;;;;;;5042808;28;20205;-77
2023/10/30 11:39:20;;;;;;;2.15;1.92;;;;;;;;;;5044410;28;20602;-77
2023/10/30 11:41:53;;;;;;;2.38;2.00;;;;;;;;;;5044872;28;20221;-76
2023/10/30 11:44:21;;;;;;;1.98;1.88;;;;;;;;;;5033562;28;20210;-77
2023/10/30 11:46:53;;;;;;;3.95;1.98;;;;;;;;;;5040188;28;20229;-76
2023/10/30 11:49:23;;;;;;;2.72;1.80;;;;;;;;;;5036014;28;20207;-77
2023/10/30 11:51:54;;;;;;;1.95;1.70;;;;;;;;;;5020952;28;20246;-77
2023/10/30 11:54:30;;;;;;;2.03;1.83;;;;;;;;;;5036381;28;20199;-77
2023/10/30 11:56:58;;;;;;;1.90;1.80;;;;;;;;;;5037814;28;20202;-78
2023/10/30 11:59:27;;;;;;;2.40;1.70;;;;;;;;;;5039475;28;20220;-76
2023/10/30 12:01:56;;;;;;;2.28;2.08;;;;;;;;;;5041946;28;20207;-78
2023/10/30 12:04:24;;;;;;;2.22;2.03;;;;;;;;;;5029373;28;20207;-77
2023/10/30 12:06:52;;;;;;;2.10;1.90;;;;;;;;;;5039085;28;20216;-77
2023/10/30 12:09:20;;;;;;;2.28;2.08;;;;;;;;;;5033441;28;20207;-76
2023/10/30 12:11:47;;;;;;;2.60;1.77;;;;;;;;;;5014193;28;20279;-76
2023/10/30 12:14:16;;;;;;;2.20;1.70;;;;;;;;;;5038798;28;20249;-76
2023/10/30 12:16:47;;;;;;;2.83;1.73;;;;;;;;;;5042381;28;20214;-76
2023/10/30 12:19:15;;;;;;;2.13;1.92;;;;;;;;;;5046203;28;20216;-77
2023/10/30 12:21:43;;;;;;;1.67;1.55;;;;;;;;;;5039662;28;20272;-76
2023/10/30 12:24:11;;;;;;;1.70;1.60;;;;;;;;;;5032367;28;20234;-77
2023/10/30 12:26:41;;;;;;;3.50;1.90;;;;;;;;;;5025698;28;20206;-77
2023/10/30 12:29:11;;;;;;;2.78;2.35;;;;;;;;;;5043223;28;20344;-77
2023/10/30 12:31:39;;;;;;;3.97;2.55;;;;;;;;;;5045142;28;20225;-76
2023/10/30 12:34:10;;;;;;;3.85;2.90;;;;;;;;;;5045462;28;20210;-76
2023/10/30 12:36:38;;;;;;;2.97;2.70;;;;;;;;;;5044784;28;20210;-77
2023/10/30 12:39:11;;;;;;;4.75;2.75;;;;;;;;;;5036024;28;20585;-77
2023/10/30 12:41:38;;;;;;;2.40;2.20;;;;;;;;;;5034055;28;20360;-77
2023/10/30 12:44:05;;;;;;;3.17;2.88;;;;;;;;;;5039998;28;20717;-76
2023/10/30 12:46:33;;;;;;;3.80;2.75;;;;;;;;;;5044294;28;20213;-78
2023/10/30 12:49:00;;;;;;;4.97;3.00;;;;;;;;;;5039486;28;20653;-77
2023/10/30 12:51:28;;;;;;;2.72;2.50;;;;;;;;;;5043021;28;20323;-77
2023/10/30 12:53:56;;;;;;;3.17;2.55;;;;;;;;;;5033231;28;20621;-76
2023/10/30 12:56:24;;;;;;;4.95;3.65;;;;;;;;;;5042512;28;20665;-79
2023/10/30 12:58:51;;;;;;;4.95;3.47;;;;;;;;;;5032262;28;20718;-77
2023/10/30 13:01:18;;;;;;;2.00;1.90;;;;;;;;;;5048300;28;20221;-78
2023/10/30 13:03:46;;;;;;;2.92;2.00;;;;;;;;;;5038819;28;20706;-77
2023/10/30 13:06:13;;;;;;;2.88;1.80;;;;;;;;;;5046375;28;20209;-78
2023/10/30 13:08:41;;;;;;;3.00;2.80;;;;;;;;;;5072981;23;20229;-79
2023/10/30 13:11:09;;;;;;;2.65;2.15;;;;;;;;;;5077615;28;20217;-79
2023/10/30 13:13:36;;;;;;;2.10;1.90;;;;;;;;;;5075211;28;20305;-78
2023/10/30 13:16:06;;;;;;;2.45;2.25;;;;;;;;;;5073692;28;20240;-78
2023/10/30 13:18:35;;;;;;;3.15;2.15;;;;;;;;;;5076611;28;20197;-78
2023/10/30 13:21:06;;;;;;;2.92;2.05;;;;;;;;;;5074943;28;20279;-78
2023/10/30 13:23:34;;;;;;;2.42;2.22;;;;;;;;;;5076380;28;20225;-79
2023/10/30 13:26:01;;;;;;;2.65;2.40;;;;;;;;;;5074542;28;20204;-79
2023/10/30 13:28:35;;;;;;;2.70;2.50;;;;;;;;;;5075438;28;20225;-78
2023/10/30 13:31:03;;;;;;;3.00;2.45;;;;;;;;;;5078938;28;20315;-80
2023/10/30 13:33:31;;;;;;;3.63;2.22;;;;;;;;;;5078910;28;20201;-78
2023/10/30 13:35:58;;;;;;;2.72;2.20;;;;;;;;;;5080229;28;20300;-78
2023/10/30 13:38:29;;;;;;;3.55;2.15;;;;;;;;;;5079126;28;20277;-78
2023/10/30 13:40:56;;;;;;;4.30;2.50;;;;;;;;;;5056930;28;20253;-78
2023/10/30 13:43:24;;;;;;;2.30;2.10;;;;;;;;;;5071155;28;20289;-77
2023/10/30 13:45:52;;;;;;;4.50;2.75;;;;;;;;;;5075521;28;20206;-78
2023/10/30 13:48:19;;;;;;;5.30;2.70;;;;;;;;;;5076125;28;20664;-77
2023/10/30 13:50:47;;;;;;;5.20;2.58;;;;;;;;;;5076439;28;20312;-78
2023/10/30 13:53:15;;;;;;;3.90;2.67;;;;;;;;;;5076057;28;20201;-78
2023/10/30 13:55:43;;;;;;;5.65;2.90;;;;;;;;;;5077177;28;20206;-77
2023/10/30 13:58:11;;;;;;;5.82;2.95;;;;;;;;;;5075642;28;20705;-77
2023/10/30 14:00:41;;;;;;;5.10;3.42;;;;;;;;;;5076490;28;20233;-79
2023/10/30 14:03:10;;;;;;;4.43;3.10;;;;;;;;;;5075955;28;20285;-78
2023/10/30 14:05:37;;;;;;;4.22;2.90;;;;;;;;;;5071617;28;20657;-78
2023/10/30 14:08:05;;;;;;;2.90;2.53;;;;;;;;;;5077143;28;20296;-77
2023/10/30 14:10:33;;;;;;;4.30;3.47;;;;;;;;;;5075242;28;20205;-78
2023/10/30 14:13:02;;;;;;;3.47;3.20;;;;;;;;;;5067273;28;20209;-79
2023/10/30 14:15:29;;;;;;;3.97;3.40;;;;;;;;;;5078132;28;20274;-79
2023/10/30 14:17:57;;;;;;;3.33;2.45;;;;;;;;;;5073442;28;20293;-78
2023/10/30 14:20:25;;;;;;;3.72;3.38;;;;;;;;;;5064554;28;20205;-79
2023/10/30 14:22:52;;;;;;;2.50;2.30;;;;;;;;;;5075841;28;20238;-77
2023/10/30 14:25:20;;;;;;;2.70;2.50;;;;;;;;;;5075384;28;20212;-78
2023/10/30 14:27:47;;;;;;;5.22;3.10;;;;;;;;;;5058766;28;20202;-78
2023/10/30 14:30:16;;;;;;;7.32;3.10;;;;;;;;;;5075381;28;20182;-79
2023/10/30 14:32:43;;;;;;;4.88;3.00;;;;;;;;;;5076666;28;20245;-78
2023/10/30 14:35:10;;;;;;;2.60;2.40;;;;;;;;;;5074791;28;20205;-77
2023/10/30 14:37:39;;;;;;;5.28;2.80;;;;;;;;;;5068577;28;20618;-77
2023/10/30 14:40:07;;;;;;;2.85;2.47;;;;;;;;;;5073763;28;20434;-79
2023/10/30 14:42:35;;;;;;;2.80;2.60;;;;;;;;;;5068278;28;20243;-77
2023/10/30 14:45:03;;;;;;;5.15;4.18;;;;;;;;;;5068582;28;20282;-77
2023/10/30 14:47:30;;;;;;;4.45;4.05;;;;;;;;;;5088233;28;20223;-79
2023/10/30 14:49:58;;;;;;;4.53;4.07;;;;;;;;;;5077563;28;20221;-78